sensor_id;sensor_type;location;lat;lon;timestamp;P1;durP1;ratioP1;P2;durP2;ratioP2
25780;SDS011;13626;48.128;11.628;2023-04-25T00:01:03;2.35;;;2.00;;
25780;SDS011;13626;48.128;11.628;2023-04-25T00:03:31;2.85;;;1.85;;
25780;SDS011;13626;48.128;11.628;2023-04-25T00:05:59;2.25;;;1.73;;
25780;SDS011;13626;48.128;11.628;2023-04-25T00:08:29;3.30;;;2.00;;
25780;SDS011;13626;48.128;11.628;2023-04-25T00:10:57;3.00;;;1.60;;
25780;SDS011;13626;48.128;11.628;2023-04-25T00:13:24;2.47;;;1.42;;
25780;SDS011;13626;48.128;11.628;2023-04-25T00:15:52;4.63;;;1.80;;
25780;SDS011;13626;48.128;11.628;2023-04-25T00:18:19;4.18;;;2.10;;
25780;SDS011;13626;48.128;11.628;2023-04-25T00:20:46;3.13;;;1.88;;
25780;SDS011;13626;48.128;11.628;2023-04-25T00:23:14;2.45;;;1.90;;
25780;SDS011;13626;48.128;11.628;2023-04-25T00:25:44;2.28;;;1.75;;
25780;SDS011;13626;48.128;11.628;2023-04-25T00:28:11;2.90;;;1.65;;
25780;SDS011;13626;48.128;11.628;2023-04-25T00:30:39;1.88;;;1.52;;
25780;SDS011;13626;48.128;11.628;2023-04-25T00:33:06;1.67;;;1.58;;
25780;SDS011;13626;48.128;11.628;2023-04-25T00:35:34;3.33;;;1.95;;
25780;SDS011;13626;48.128;11.628;2023-04-25T00:38:01;2.42;;;1.90;;
25780;SDS011;13626;48.128;11.628;2023-04-25T00:40:28;2.10;;;1.70;;
25780;SDS011;13626;48.128;11.628;2023-04-25T00:42:56;2.50;;;1.90;;
25780;SDS011;13626;48.128;11.628;2023-04-25T00:45:23;2.83;;;1.85;;
25780;SDS011;13626;48.128;11.628;2023-04-25T00:47:54;2.92;;;1.80;;
25780;SDS011;13626;48.128;11.628;2023-04-25T00:50:21;2.03;;;1.40;;
25780;SDS011;13626;48.128;11.628;2023-04-25T00:52:49;1.77;;;1.67;;
25780;SDS011;13626;48.128;11.628;2023-04-25T00:55:16;6.57;;;1.80;;
25780;SDS011;13626;48.128;11.628;2023-04-25T00:57:43;2.88;;;1.98;;
25780;SDS011;13626;48.128;11.628;2023-04-25T01:00:11;2.38;;;1.70;;
25780;SDS011;13626;48.128;11.628;2023-04-25T01:02:39;4.00;;;2.00;;
25780;SDS011;13626;48.128;11.628;2023-04-25T01:05:08;2.53;;;1.80;;
25780;SDS011;13626;48.128;11.628;2023-04-25T01:07:35;2.17;;;1.67;;
25780;SDS011;13626;48.128;11.628;2023-04-25T01:10:03;2.28;;;1.83;;
25780;SDS011;13626;48.128;11.628;2023-04-25T01:12:32;3.40;;;1.63;;
25780;SDS011;13626;48.128;11.628;2023-04-25T01:14:59;2.92;;;1.85;;
25780;SDS011;13626;48.128;11.628;2023-04-25T01:17:26;1.60;;;1.50;;
25780;SDS011;13626;48.128;11.628;2023-04-25T01:19:54;3.65;;;2.00;;
25780;SDS011;13626;48.128;11.628;2023-04-25T01:22:21;1.90;;;1.70;;
25780;SDS011;13626;48.128;11.628;2023-04-25T01:24:49;2.03;;;1.80;;
25780;SDS011;13626;48.128;11.628;2023-04-25T01:27:16;4.80;;;1.77;;
25780;SDS011;13626;48.128;11.628;2023-04-25T01:29:43;2.50;;;1.77;;
25780;SDS011;13626;48.128;11.628;2023-04-25T01:32:11;2.47;;;1.67;;
25780;SDS011;13626;48.128;11.628;2023-04-25T01:34:38;2.75;;;1.67;;
25780;SDS011;13626;48.128;11.628;2023-04-25T01:37:05;2.33;;;1.70;;
25780;SDS011;13626;48.128;11.628;2023-04-25T01:39:32;2.05;;;1.80;;
25780;SDS011;13626;48.128;11.628;2023-04-25T01:41:59;3.80;;;2.03;;
25780;SDS011;13626;48.128;11.628;2023-04-25T01:44:27;2.78;;;1.95;;
25780;SDS011;13626;48.128;11.628;2023-04-25T01:46:55;2.95;;;2.20;;
25780;SDS011;13626;48.128;11.628;2023-04-25T01:49:22;1.88;;;1.73;;
25780;SDS011;13626;48.128;11.628;2023-04-25T01:51:49;2.40;;;1.80;;
25780;SDS011;13626;48.128;11.628;2023-04-25T01:54:16;2.03;;;1.50;;
25780;SDS011;13626;48.128;11.628;2023-04-25T01:56:49;2.25;;;1.73;;
25780;SDS011;13626;48.128;11.628;2023-04-25T01:59:17;2.97;;;1.77;;
25780;SDS011;13626;48.128;11.628;2023-04-25T02:01:46;2.50;;;1.85;;
25780;SDS011;13626;48.128;11.628;2023-04-25T02:04:13;5.20;;;1.70;;
25780;SDS011;13626;48.128;11.628;2023-04-25T02:06:40;2.97;;;1.90;;
25780;SDS011;13626;48.128;11.628;2023-04-25T02:09:08;4.10;;;1.98;;
25780;SDS011;13626;48.128;11.628;2023-04-25T02:11:35;2.70;;;1.75;;
25780;SDS011;13626;48.128;11.628;2023-04-25T02:14:02;4.32;;;1.92;;
25780;SDS011;13626;48.128;11.628;2023-04-25T02:16:29;2.67;;;1.80;;
25780;SDS011;13626;48.128;11.628;2023-04-25T02:18:57;3.42;;;1.70;;
25780;SDS011;13626;48.128;11.628;2023-04-25T02:21:24;3.53;;;2.03;;
25780;SDS011;13626;48.128;11.628;2023-04-25T02:23:52;3.85;;;2.20;;
25780;SDS011;13626;48.128;11.628;2023-04-25T02:26:19;3.55;;;2.15;;
25780;SDS011;13626;48.128;11.628;2023-04-25T02:28:47;1.75;;;1.65;;
25780;SDS011;13626;48.128;11.628;2023-04-25T02:31:15;2.83;;;1.98;;
25780;SDS011;13626;48.128;11.628;2023-04-25T02:33:42;2.58;;;2.10;;
25780;SDS011;13626;48.128;11.628;2023-04-25T02:36:09;3.08;;;1.90;;
25780;SDS011;13626;48.128;11.628;2023-04-25T02:38:36;3.13;;;1.98;;
25780;SDS011;13626;48.128;11.628;2023-04-25T02:41:04;4.38;;;1.90;;
25780;SDS011;13626;48.128;11.628;2023-04-25T02:43:31;1.80;;;1.70;;
25780;SDS011;13626;48.128;11.628;2023-04-25T02:45:58;3.78;;;1.95;;
25780;SDS011;13626;48.128;11.628;2023-04-25T02:48:25;4.35;;;2.30;;
25780;SDS011;13626;48.128;11.628;2023-04-25T02:50:52;1.90;;;1.70;;
25780;SDS011;13626;48.128;11.628;2023-04-25T02:53:19;3.90;;;2.05;;
25780;SDS011;13626;48.128;11.628;2023-04-25T02:55:47;2.25;;;1.90;;
25780;SDS011;13626;48.128;11.628;2023-04-25T02:58:14;3.78;;;2.35;;
25780;SDS011;13626;48.128;11.628;2023-04-25T03:00:41;5.10;;;2.08;;
25780;SDS011;13626;48.128;11.628;2023-04-25T03:03:08;2.10;;;1.90;;
25780;SDS011;13626;48.128;11.628;2023-04-25T03:05:36;3.58;;;2.00;;
25780;SDS011;13626;48.128;11.628;2023-04-25T03:08:03;2.47;;;1.88;;
25780;SDS011;13626;48.128;11.628;2023-04-25T03:10:30;2.55;;;1.85;;
25780;SDS011;13626;48.128;11.628;2023-04-25T03:12:57;2.20;;;1.80;;
25780;SDS011;13626;48.128;11.628;2023-04-25T03:15:24;3.60;;;2.08;;
25780;SDS011;13626;48.128;11.628;2023-04-25T03:17:52;4.50;;;1.70;;
25780;SDS011;13626;48.128;11.628;2023-04-25T03:20:19;5.50;;;1.98;;
25780;SDS011;13626;48.128;11.628;2023-04-25T03:22:46;3.60;;;2.20;;
25780;SDS011;13626;48.128;11.628;2023-04-25T03:25:14;2.80;;;2.00;;
25780;SDS011;13626;48.128;11.628;2023-04-25T03:27:42;4.57;;;2.28;;
25780;SDS011;13626;48.128;11.628;2023-04-25T03:30:09;3.63;;;2.45;;
25780;SDS011;13626;48.128;11.628;2023-04-25T03:32:37;3.75;;;2.42;;
25780;SDS011;13626;48.128;11.628;2023-04-25T03:35:04;4.22;;;1.90;;
25780;SDS011;13626;48.128;11.628;2023-04-25T03:37:31;2.75;;;2.00;;
25780;SDS011;13626;48.128;11.628;2023-04-25T03:39:59;4.30;;;2.28;;
25780;SDS011;13626;48.128;11.628;2023-04-25T03:42:26;5.40;;;2.55;;
25780;SDS011;13626;48.128;11.628;2023-04-25T03:44:53;4.47;;;1.85;;
25780;SDS011;13626;48.128;11.628;2023-04-25T03:47:20;2.03;;;1.67;;
25780;SDS011;13626;48.128;11.628;2023-04-25T03:49:47;2.90;;;2.08;;
25780;SDS011;13626;48.128;11.628;2023-04-25T03:52:18;3.10;;;1.80;;
25780;SDS011;13626;48.128;11.628;2023-04-25T03:54:45;2.10;;;1.60;;
25780;SDS011;13626;48.128;11.628;2023-04-25T03:57:12;3.72;;;1.60;;
25780;SDS011;13626;48.128;11.628;2023-04-25T03:59:39;1.83;;;1.50;;
25780;SDS011;13626;48.128;11.628;2023-04-25T04:02:06;3.25;;;2.03;;
25780;SDS011;13626;48.128;11.628;2023-04-25T04:04:33;2.25;;;1.80;;
25780;SDS011;13626;48.128;11.628;2023-04-25T04:07:01;3.05;;;1.77;;
25780;SDS011;13626;48.128;11.628;2023-04-25T04:09:28;3.22;;;1.67;;
25780;SDS011;13626;48.128;11.628;2023-04-25T04:11:55;3.83;;;1.83;;
25780;SDS011;13626;48.128;11.628;2023-04-25T04:14:22;2.55;;;1.70;;
25780;SDS011;13626;48.128;11.628;2023-04-25T04:16:50;2.88;;;1.60;;
25780;SDS011;13626;48.128;11.628;2023-04-25T04:19:18;2.15;;;1.85;;
25780;SDS011;13626;48.128;11.628;2023-04-25T04:21:45;4.50;;;1.70;;
25780;SDS011;13626;48.128;11.628;2023-04-25T04:24:12;3.28;;;1.88;;
25780;SDS011;13626;48.128;11.628;2023-04-25T04:26:41;2.25;;;1.50;;
25780;SDS011;13626;48.128;11.628;2023-04-25T04:29:11;4.22;;;1.77;;
25780;SDS011;13626;48.128;11.628;2023-04-25T04:31:49;2.90;;;1.50;;
25780;SDS011;13626;48.128;11.628;2023-04-25T04:34:17;2.53;;;1.70;;
25780;SDS011;13626;48.128;11.628;2023-04-25T04:36:45;3.50;;;1.63;;
25780;SDS011;13626;48.128;11.628;2023-04-25T04:39:13;3.15;;;1.80;;
25780;SDS011;13626;48.128;11.628;2023-04-25T04:41:40;1.95;;;1.70;;
25780;SDS011;13626;48.128;11.628;2023-04-25T04:44:07;4.88;;;1.67;;
25780;SDS011;13626;48.128;11.628;2023-04-25T04:46:35;3.83;;;1.77;;
25780;SDS011;13626;48.128;11.628;2023-04-25T04:49:08;2.47;;;1.80;;
25780;SDS011;13626;48.128;11.628;2023-04-25T04:51:36;2.83;;;1.70;;
25780;SDS011;13626;48.128;11.628;2023-04-25T04:54:03;1.90;;;1.23;;
25780;SDS011;13626;48.128;11.628;2023-04-25T04:56:31;2.80;;;1.77;;
25780;SDS011;13626;48.128;11.628;2023-04-25T04:58:58;3.35;;;1.60;;
25780;SDS011;13626;48.128;11.628;2023-04-25T05:01:26;2.53;;;1.48;;
25780;SDS011;13626;48.128;11.628;2023-04-25T05:03:53;3.05;;;1.90;;
25780;SDS011;13626;48.128;11.628;2023-04-25T05:06:27;4.25;;;1.73;;
25780;SDS011;13626;48.128;11.628;2023-04-25T05:08:55;3.13;;;1.60;;
25780;SDS011;13626;48.128;11.628;2023-04-25T05:11:23;2.42;;;1.60;;
25780;SDS011;13626;48.128;11.628;2023-04-25T05:13:51;3.70;;;1.75;;
25780;SDS011;13626;48.128;11.628;2023-04-25T05:16:19;2.72;;;1.92;;
25780;SDS011;13626;48.128;11.628;2023-04-25T05:18:47;4.38;;;1.85;;
25780;SDS011;13626;48.128;11.628;2023-04-25T05:21:14;3.03;;;1.85;;
25780;SDS011;13626;48.128;11.628;2023-04-25T05:23:41;6.60;;;1.98;;
25780;SDS011;13626;48.128;11.628;2023-04-25T05:26:08;3.90;;;1.90;;
25780;SDS011;13626;48.128;11.628;2023-04-25T05:28:40;2.80;;;2.00;;
25780;SDS011;13626;48.128;11.628;2023-04-25T05:31:09;5.75;;;2.00;;
25780;SDS011;13626;48.128;11.628;2023-04-25T05:33:36;4.20;;;2.20;;
25780;SDS011;13626;48.128;11.628;2023-04-25T05:36:03;3.53;;;1.77;;
25780;SDS011;13626;48.128;11.628;2023-04-25T05:38:31;4.97;;;2.05;;
25780;SDS011;13626;48.128;11.628;2023-04-25T05:41:00;4.00;;;2.30;;
25780;SDS011;13626;48.128;11.628;2023-04-25T05:43:27;6.28;;;2.65;;
25780;SDS011;13626;48.128;11.628;2023-04-25T05:45:54;5.28;;;2.28;;
25780;SDS011;13626;48.128;11.628;2023-04-25T05:48:22;2.60;;;1.90;;
25780;SDS011;13626;48.128;11.628;2023-04-25T05:50:49;4.80;;;2.08;;
25780;SDS011;13626;48.128;11.628;2023-04-25T05:53:18;3.80;;;2.00;;
25780;SDS011;13626;48.128;11.628;2023-04-25T05:55:45;4.53;;;2.28;;
25780;SDS011;13626;48.128;11.628;2023-04-25T05:58:13;5.20;;;2.20;;
25780;SDS011;13626;48.128;11.628;2023-04-25T06:00:40;3.45;;;1.63;;
25780;SDS011;13626;48.128;11.628;2023-04-25T06:03:07;4.60;;;2.10;;
25780;SDS011;13626;48.128;11.628;2023-04-25T06:05:36;5.65;;;2.08;;
25780;SDS011;13626;48.128;11.628;2023-04-25T06:08:03;3.65;;;2.00;;
25780;SDS011;13626;48.128;11.628;2023-04-25T06:10:30;4.20;;;1.92;;
25780;SDS011;13626;48.128;11.628;2023-04-25T06:12:57;2.42;;;1.65;;
25780;SDS011;13626;48.128;11.628;2023-04-25T06:15:25;4.97;;;2.38;;
25780;SDS011;13626;48.128;11.628;2023-04-25T06:17:54;2.63;;;1.55;;
25780;SDS011;13626;48.128;11.628;2023-04-25T06:20:21;4.05;;;2.00;;
25780;SDS011;13626;48.128;11.628;2023-04-25T06:22:50;5.10;;;1.48;;
25780;SDS011;13626;48.128;11.628;2023-04-25T06:25:18;2.15;;;1.55;;
25780;SDS011;13626;48.128;11.628;2023-04-25T06:27:45;1.30;;;1.20;;
25780;SDS011;13626;48.128;11.628;2023-04-25T06:30:12;1.63;;;1.30;;
25780;SDS011;13626;48.128;11.628;2023-04-25T06:32:39;2.30;;;1.70;;
25780;SDS011;13626;48.128;11.628;2023-04-25T06:35:06;3.25;;;1.90;;
25780;SDS011;13626;48.128;11.628;2023-04-25T06:37:33;6.65;;;2.08;;
25780;SDS011;13626;48.128;11.628;2023-04-25T06:40:01;3.13;;;1.80;;
25780;SDS011;13626;48.128;11.628;2023-04-25T06:42:28;2.97;;;2.33;;
25780;SDS011;13626;48.128;11.628;2023-04-25T06:44:55;3.78;;;2.20;;
25780;SDS011;13626;48.128;11.628;2023-04-25T06:47:23;5.10;;;2.10;;
25780;SDS011;13626;48.128;11.628;2023-04-25T06:49:50;2.25;;;1.98;;
25780;SDS011;13626;48.128;11.628;2023-04-25T06:52:17;4.88;;;2.22;;
25780;SDS011;13626;48.128;11.628;2023-04-25T06:54:44;4.70;;;2.20;;
25780;SDS011;13626;48.128;11.628;2023-04-25T06:57:11;2.67;;;1.70;;
25780;SDS011;13626;48.128;11.628;2023-04-25T06:59:39;4.22;;;1.80;;
25780;SDS011;13626;48.128;11.628;2023-04-25T07:02:06;3.30;;;2.33;;
25780;SDS011;13626;48.128;11.628;2023-04-25T07:04:33;2.50;;;1.85;;
25780;SDS011;13626;48.128;11.628;2023-04-25T07:07:01;4.90;;;2.05;;
25780;SDS011;13626;48.128;11.628;2023-04-25T07:09:29;3.97;;;1.58;;
25780;SDS011;13626;48.128;11.628;2023-04-25T07:12:00;4.97;;;2.03;;
25780;SDS011;13626;48.128;11.628;2023-04-25T07:14:27;4.32;;;1.98;;
25780;SDS011;13626;48.128;11.628;2023-04-25T07:16:54;2.60;;;1.95;;
25780;SDS011;13626;48.128;11.628;2023-04-25T07:19:23;3.63;;;1.98;;
25780;SDS011;13626;48.128;11.628;2023-04-25T07:21:52;5.97;;;2.17;;
25780;SDS011;13626;48.128;11.628;2023-04-25T07:24:19;2.92;;;2.00;;
25780;SDS011;13626;48.128;11.628;2023-04-25T07:26:47;3.50;;;2.05;;
25780;SDS011;13626;48.128;11.628;2023-04-25T07:29:14;3.63;;;1.80;;
25780;SDS011;13626;48.128;11.628;2023-04-25T07:31:41;3.08;;;2.10;;
25780;SDS011;13626;48.128;11.628;2023-04-25T07:34:08;3.22;;;2.00;;
25780;SDS011;13626;48.128;11.628;2023-04-25T07:36:36;5.30;;;2.30;;
25780;SDS011;13626;48.128;11.628;2023-04-25T07:39:03;3.78;;;2.38;;
25780;SDS011;13626;48.128;11.628;2023-04-25T07:41:30;2.17;;;1.65;;
25780;SDS011;13626;48.128;11.628;2023-04-25T07:43:57;2.53;;;2.05;;
25780;SDS011;13626;48.128;11.628;2023-04-25T07:46:24;2.67;;;1.85;;
25780;SDS011;13626;48.128;11.628;2023-04-25T07:48:51;4.72;;;2.00;;
25780;SDS011;13626;48.128;11.628;2023-04-25T07:51:19;3.85;;;2.15;;
25780;SDS011;13626;48.128;11.628;2023-04-25T07:53:48;2.38;;;1.98;;
25780;SDS011;13626;48.128;11.628;2023-04-25T07:56:16;3.10;;;1.95;;
25780;SDS011;13626;48.128;11.628;2023-04-25T07:58:43;3.33;;;2.05;;
25780;SDS011;13626;48.128;11.628;2023-04-25T08:01:10;4.15;;;2.13;;
25780;SDS011;13626;48.128;11.628;2023-04-25T08:03:37;4.40;;;2.30;;
25780;SDS011;13626;48.128;11.628;2023-04-25T08:06:06;5.70;;;2.33;;
25780;SDS011;13626;48.128;11.628;2023-04-25T08:08:34;5.00;;;2.40;;
25780;SDS011;13626;48.128;11.628;2023-04-25T08:11:01;3.53;;;2.25;;
25780;SDS011;13626;48.128;11.628;2023-04-25T08:13:28;3.75;;;2.20;;
25780;SDS011;13626;48.128;11.628;2023-04-25T08:15:55;4.00;;;2.22;;
25780;SDS011;13626;48.128;11.628;2023-04-25T08:18:22;2.97;;;2.15;;
25780;SDS011;13626;48.128;11.628;2023-04-25T08:20:50;2.28;;;2.08;;
25780;SDS011;13626;48.128;11.628;2023-04-25T08:23:17;3.05;;;1.83;;
25780;SDS011;13626;48.128;11.628;2023-04-25T08:25:44;3.53;;;2.10;;
25780;SDS011;13626;48.128;11.628;2023-04-25T08:28:12;3.72;;;2.17;;
25780;SDS011;13626;48.128;11.628;2023-04-25T08:30:39;3.17;;;1.98;;
25780;SDS011;13626;48.128;11.628;2023-04-25T08:33:06;2.35;;;2.15;;
25780;SDS011;13626;48.128;11.628;2023-04-25T08:35:33;3.22;;;2.20;;
25780;SDS011;13626;48.128;11.628;2023-04-25T08:38:00;3.85;;;2.60;;
25780;SDS011;13626;48.128;11.628;2023-04-25T08:40:28;3.22;;;2.25;;
25780;SDS011;13626;48.128;11.628;2023-04-25T08:42:57;4.63;;;1.92;;
25780;SDS011;13626;48.128;11.628;2023-04-25T08:45:26;2.15;;;1.95;;
25780;SDS011;13626;48.128;11.628;2023-04-25T08:47:54;2.42;;;1.77;;
25780;SDS011;13626;48.128;11.628;2023-04-25T08:50:23;2.65;;;2.00;;
25780;SDS011;13626;48.128;11.628;2023-04-25T08:52:52;2.03;;;1.50;;
25780;SDS011;13626;48.128;11.628;2023-04-25T08:55:20;6.05;;;3.97;;
25780;SDS011;13626;48.128;11.628;2023-04-25T08:57:48;2.47;;;1.90;;
25780;SDS011;13626;48.128;11.628;2023-04-25T09:00:16;2.35;;;1.85;;
25780;SDS011;13626;48.128;11.628;2023-04-25T09:02:56;3.42;;;1.48;;
25780;SDS011;13626;48.128;11.628;2023-04-25T09:05:23;5.45;;;2.67;;
25780;SDS011;13626;48.128;11.628;2023-04-25T09:07:51;1.95;;;1.50;;
25780;SDS011;13626;48.128;11.628;2023-04-25T09:10:18;2.28;;;1.60;;
25780;SDS011;13626;48.128;11.628;2023-04-25T09:12:58;1.88;;;1.38;;
25780;SDS011;13626;48.128;11.628;2023-04-25T09:15:28;1.50;;;1.40;;
25780;SDS011;13626;48.128;11.628;2023-04-25T09:17:56;2.92;;;1.20;;
25780;SDS011;13626;48.128;11.628;2023-04-25T09:20:23;2.13;;;1.50;;
25780;SDS011;13626;48.128;11.628;2023-04-25T09:23:03;3.70;;;3.17;;
25780;SDS011;13626;48.128;11.628;2023-04-25T09:25:35;1.73;;;1.30;;
25780;SDS011;13626;48.128;11.628;2023-04-25T09:28:05;2.03;;;1.48;;
25780;SDS011;13626;48.128;11.628;2023-04-25T09:30:33;1.80;;;1.50;;
25780;SDS011;13626;48.128;11.628;2023-04-25T09:33:07;2.03;;;1.60;;
25780;SDS011;13626;48.128;11.628;2023-04-25T09:35:38;1.92;;;1.58;;
25780;SDS011;13626;48.128;11.628;2023-04-25T09:38:07;2.38;;;1.30;;
25780;SDS011;13626;48.128;11.628;2023-04-25T09:40:34;2.28;;;1.58;;
25780;SDS011;13626;48.128;11.628;2023-04-25T09:43:09;2.38;;;1.40;;
25780;SDS011;13626;48.128;11.628;2023-04-25T09:45:43;4.38;;;1.60;;
25780;SDS011;13626;48.128;11.628;2023-04-25T09:50:39;2.92;;;1.60;;
25780;SDS011;13626;48.128;11.628;2023-04-25T09:53:06;2.25;;;1.33;;
25780;SDS011;13626;48.128;11.628;2023-04-25T09:55:34;1.80;;;1.60;;
25780;SDS011;13626;48.128;11.628;2023-04-25T09:58:04;1.98;;;1.52;;
25780;SDS011;13626;48.128;11.628;2023-04-25T10:00:35;1.83;;;1.20;;
25780;SDS011;13626;48.128;11.628;2023-04-25T10:03:02;1.80;;;1.50;;
25780;SDS011;13626;48.128;11.628;2023-04-25T10:05:30;2.40;;;1.30;;
25780;SDS011;13626;48.128;11.628;2023-04-25T10:07:59;1.40;;;1.20;;
25780;SDS011;13626;48.128;11.628;2023-04-25T10:10:29;2.55;;;1.33;;
25780;SDS011;13626;48.128;11.628;2023-04-25T10:13:05;1.70;;;1.60;;
25780;SDS011;13626;48.128;11.628;2023-04-25T10:15:34;2.03;;;1.50;;
25780;SDS011;13626;48.128;11.628;2023-04-25T10:18:05;3.58;;;1.83;;
25780;SDS011;13626;48.128;11.628;2023-04-25T10:20:33;1.63;;;1.40;;
25780;SDS011;13626;48.128;11.628;2023-04-25T10:23:08;2.10;;;1.67;;
25780;SDS011;13626;48.128;11.628;2023-04-25T10:25:39;1.30;;;1.20;;
25780;SDS011;13626;48.128;11.628;2023-04-25T10:28:07;2.78;;;1.63;;
25780;SDS011;13626;48.128;11.628;2023-04-25T10:30:34;2.95;;;1.50;;
25780;SDS011;13626;48.128;11.628;2023-04-25T10:33:01;2.00;;;1.55;;
25780;SDS011;13626;48.128;11.628;2023-04-25T10:35:28;2.60;;;1.52;;
25780;SDS011;13626;48.128;11.628;2023-04-25T10:38:02;2.17;;;1.52;;
25780;SDS011;13626;48.128;11.628;2023-04-25T10:40:33;2.55;;;1.98;;
25780;SDS011;13626;48.128;11.628;2023-04-25T10:45:52;2.63;;;1.50;;
25780;SDS011;13626;48.128;11.628;2023-04-25T10:48:29;3.50;;;1.65;;
25780;SDS011;13626;48.128;11.628;2023-04-25T10:51:12;4.85;;;1.67;;
25780;SDS011;13626;48.128;11.628;2023-04-25T10:56:26;5.10;;;2.00;;
25780;SDS011;13626;48.128;11.628;2023-04-25T10:59:07;1.75;;;1.45;;
25780;SDS011;13626;48.128;11.628;2023-04-25T11:01:45;2.60;;;1.50;;
25780;SDS011;13626;48.128;11.628;2023-04-25T11:04:24;1.75;;;1.33;;
25780;SDS011;13626;48.128;11.628;2023-04-25T11:06:58;1.60;;;1.45;;
25780;SDS011;13626;48.128;11.628;2023-04-25T11:09:33;2.28;;;1.40;;
25780;SDS011;13626;48.128;11.628;2023-04-25T11:12:00;2.20;;;1.50;;
25780;SDS011;13626;48.128;11.628;2023-04-25T11:14:27;3.33;;;1.65;;
25780;SDS011;13626;48.128;11.628;2023-04-25T11:16:57;2.70;;;1.80;;
25780;SDS011;13626;48.128;11.628;2023-04-25T11:19:26;2.03;;;1.45;;
25780;SDS011;13626;48.128;11.628;2023-04-25T11:21:54;2.00;;;1.70;;
25780;SDS011;13626;48.128;11.628;2023-04-25T11:24:25;4.13;;;1.40;;
25780;SDS011;13626;48.128;11.628;2023-04-25T11:26:52;2.63;;;1.50;;
25780;SDS011;13626;48.128;11.628;2023-04-25T11:29:23;1.13;;;1.02;;
25780;SDS011;13626;48.128;11.628;2023-04-25T11:31:50;2.42;;;1.10;;
25780;SDS011;13626;48.128;11.628;2023-04-25T11:34:18;1.73;;;1.20;;
25780;SDS011;13626;48.128;11.628;2023-04-25T11:36:45;2.05;;;1.10;;
25780;SDS011;13626;48.128;11.628;2023-04-25T11:39:13;1.08;;;0.93;;
25780;SDS011;13626;48.128;11.628;2023-04-25T11:41:41;2.05;;;1.08;;
25780;SDS011;13626;48.128;11.628;2023-04-25T11:44:11;2.13;;;1.10;;
25780;SDS011;13626;48.128;11.628;2023-04-25T11:46:38;2.33;;;1.30;;
25780;SDS011;13626;48.128;11.628;2023-04-25T11:49:05;6.13;;;1.42;;
25780;SDS011;13626;48.128;11.628;2023-04-25T11:51:39;1.27;;;1.17;;
25780;SDS011;13626;48.128;11.628;2023-04-25T11:54:06;2.37;;;1.23;;
25780;SDS011;13626;48.128;11.628;2023-04-25T11:56:34;2.50;;;1.02;;
25780;SDS011;13626;48.128;11.628;2023-04-25T11:59:02;2.50;;;1.95;;
25780;SDS011;13626;48.128;11.628;2023-04-25T12:01:30;1.45;;;1.33;;
25780;SDS011;13626;48.128;11.628;2023-04-25T12:04:14;2.30;;;1.60;;
25780;SDS011;13626;48.128;11.628;2023-04-25T12:06:42;1.70;;;1.35;;
25780;SDS011;13626;48.128;11.628;2023-04-25T12:09:11;1.20;;;1.10;;
25780;SDS011;13626;48.128;11.628;2023-04-25T12:11:46;3.40;;;1.00;;
25780;SDS011;13626;48.128;11.628;2023-04-25T12:14:27;1.88;;;1.42;;
25780;SDS011;13626;48.128;11.628;2023-04-25T12:16:55;2.35;;;1.00;;
25780;SDS011;13626;48.128;11.628;2023-04-25T12:19:24;3.47;;;1.08;;
25780;SDS011;13626;48.128;11.628;2023-04-25T12:21:52;1.85;;;1.20;;
25780;SDS011;13626;48.128;11.628;2023-04-25T12:24:24;1.88;;;1.10;;
25780;SDS011;13626;48.128;11.628;2023-04-25T12:29:21;2.13;;;1.13;;
25780;SDS011;13626;48.128;11.628;2023-04-25T12:31:53;1.10;;;1.00;;
25780;SDS011;13626;48.128;11.628;2023-04-25T12:34:21;1.13;;;0.95;;
25780;SDS011;13626;48.128;11.628;2023-04-25T12:36:49;2.50;;;0.95;;
25780;SDS011;13626;48.128;11.628;2023-04-25T12:39:17;1.17;;;0.98;;
25780;SDS011;13626;48.128;11.628;2023-04-25T12:41:48;1.08;;;0.77;;
25780;SDS011;13626;48.128;11.628;2023-04-25T12:44:16;2.38;;;0.90;;
25780;SDS011;13626;48.128;11.628;2023-04-25T12:46:43;1.40;;;0.95;;
25780;SDS011;13626;48.128;11.628;2023-04-25T12:49:11;2.25;;;0.95;;
25780;SDS011;13626;48.128;11.628;2023-04-25T12:51:44;1.20;;;1.05;;
25780;SDS011;13626;48.128;11.628;2023-04-25T12:54:11;0.85;;;0.70;;
25780;SDS011;13626;48.128;11.628;2023-04-25T12:56:38;1.38;;;1.05;;
25780;SDS011;13626;48.128;11.628;2023-04-25T12:59:06;1.80;;;1.30;;
25780;SDS011;13626;48.128;11.628;2023-04-25T13:01:33;2.30;;;1.25;;
25780;SDS011;13626;48.128;11.628;2023-04-25T13:04:02;1.00;;;0.90;;
25780;SDS011;13626;48.128;11.628;2023-04-25T13:06:29;1.13;;;1.02;;
25780;SDS011;13626;48.128;11.628;2023-04-25T13:08:57;3.25;;;0.95;;
25780;SDS011;13626;48.128;11.628;2023-04-25T13:11:24;2.22;;;1.05;;
25780;SDS011;13626;48.128;11.628;2023-04-25T13:13:51;1.40;;;1.00;;
25780;SDS011;13626;48.128;11.628;2023-04-25T13:16:19;2.33;;;1.17;;
25780;SDS011;13626;48.128;11.628;2023-04-25T13:18:49;2.25;;;0.95;;
25780;SDS011;13626;48.128;11.628;2023-04-25T13:21:16;1.20;;;0.80;;
25780;SDS011;13626;48.128;11.628;2023-04-25T13:23:43;3.22;;;1.10;;
25780;SDS011;13626;48.128;11.628;2023-04-25T13:26:12;1.25;;;1.02;;
25780;SDS011;13626;48.128;11.628;2023-04-25T13:28:40;2.53;;;0.82;;
25780;SDS011;13626;48.128;11.628;2023-04-25T13:31:09;1.83;;;1.02;;
25780;SDS011;13626;48.128;11.628;2023-04-25T13:33:37;0.80;;;0.80;;
25780;SDS011;13626;48.128;11.628;2023-04-25T13:36:04;1.45;;;0.93;;
25780;SDS011;13626;48.128;11.628;2023-04-25T13:38:31;2.50;;;0.80;;
25780;SDS011;13626;48.128;11.628;2023-04-25T13:40:59;1.40;;;1.10;;
25780;SDS011;13626;48.128;11.628;2023-04-25T13:43:27;1.17;;;1.08;;
25780;SDS011;13626;48.128;11.628;2023-04-25T13:45:54;1.15;;;0.90;;
25780;SDS011;13626;48.128;11.628;2023-04-25T13:48:21;1.40;;;1.10;;
25780;SDS011;13626;48.128;11.628;2023-04-25T13:50:49;4.40;;;1.38;;
25780;SDS011;13626;48.128;11.628;2023-04-25T13:53:17;1.20;;;1.10;;
25780;SDS011;13626;48.128;11.628;2023-04-25T13:55:44;1.02;;;0.90;;
25780;SDS011;13626;48.128;11.628;2023-04-25T13:58:12;1.25;;;0.80;;
25780;SDS011;13626;48.128;11.628;2023-04-25T14:00:39;1.17;;;0.80;;
25780;SDS011;13626;48.128;11.628;2023-04-25T14:03:09;1.05;;;0.95;;
25780;SDS011;13626;48.128;11.628;2023-04-25T14:05:37;2.15;;;0.90;;
25780;SDS011;13626;48.128;11.628;2023-04-25T14:08:08;0.77;;;0.60;;
25780;SDS011;13626;48.128;11.628;2023-04-25T14:10:36;1.00;;;0.90;;
25780;SDS011;13626;48.128;11.628;2023-04-25T14:13:04;0.90;;;0.80;;
25780;SDS011;13626;48.128;11.628;2023-04-25T14:15:33;1.15;;;1.05;;
25780;SDS011;13626;48.128;11.628;2023-04-25T14:18:00;1.38;;;0.90;;
25780;SDS011;13626;48.128;11.628;2023-04-25T14:20:28;1.38;;;1.02;;
25780;SDS011;13626;48.128;11.628;2023-04-25T14:22:55;1.05;;;0.95;;
25780;SDS011;13626;48.128;11.628;2023-04-25T14:25:24;1.35;;;1.23;;
25780;SDS011;13626;48.128;11.628;2023-04-25T14:27:52;4.68;;;1.05;;
25780;SDS011;13626;48.128;11.628;2023-04-25T14:30:20;2.55;;;1.30;;
25780;SDS011;13626;48.128;11.628;2023-04-25T14:32:48;1.33;;;1.17;;
25780;SDS011;13626;48.128;11.628;2023-04-25T14:35:16;1.52;;;1.20;;
25780;SDS011;13626;48.128;11.628;2023-04-25T14:37:43;1.23;;;1.02;;
25780;SDS011;13626;48.128;11.628;2023-04-25T14:40:10;1.83;;;0.82;;
25780;SDS011;13626;48.128;11.628;2023-04-25T14:42:39;2.97;;;1.10;;
25780;SDS011;13626;48.128;11.628;2023-04-25T14:45:07;1.13;;;0.90;;
25780;SDS011;13626;48.128;11.628;2023-04-25T14:47:35;1.80;;;1.50;;
25780;SDS011;13626;48.128;11.628;2023-04-25T14:50:03;0.75;;;0.75;;